Time,TemperatureF,DewpointF,PressureIn,WindDirection,WindDirectionDegrees,WindSpeedMPH,WindSpeedGustMPH,Humidity,HourlyPrecipIn,Conditions,Clouds,dailyrainin,SoftwareType,DateUTC
2013-03-31 00:02:00,40.5,24.3,24.20,NW,315,19.0,24.0,52,0.00,,,0.00,meteohub,2013-03-31 06:02:00,
2013-03-31 00:07:00,40.5,24.3,24.20,NW,315,19.0,24.0,52,0.00,,,0.00,meteohub,2013-03-31 06:07:00,
2013-03-31 00:12:00,39.4,24.1,24.20,NW,315,17.0,24.0,54,0.00,,,0.00,meteohub,2013-03-31 06:12:00,
2013-03-31 00:17:00,39.0,24.3,24.20,NW,315,16.0,19.0,55,0.00,,,0.00,meteohub,2013-03-31 06:17:00,
2013-03-31 00:27:00,39.7,25.0,24.19,NW,315,21.0,21.0,55,0.00,,,0.00,meteohub,2013-03-31 06:27:00,
2013-03-31 00:32:00,39.6,24.3,24.19,NW,315,17.0,21.0,54,0.00,,,0.00,meteohub,2013-03-31 06:32:00,
2013-03-31 00:37:00,39.6,24.8,24.19,NW,315,17.0,21.0,55,0.00,,,0.00,meteohub,2013-03-31 06:37:00,
2013-03-31 00:42:00,39.2,24.4,24.19,NW,315,17.0,21.0,55,0.00,,,0.00,meteohub,2013-03-31 06:42:00,
2013-03-31 00:47:00,39.2,24.8,24.19,NW,315,15.0,21.0,56,0.00,,,0.00,meteohub,2013-03-31 06:47:00,
2013-03-31 00:52:00,39.4,24.6,24.19,NW,315,15.0,21.0,55,0.00,,,0.00,meteohub,2013-03-31 06:52:00,
2013-03-31 01:02:00,38.8,24.4,24.19,WNW,293,15.0,18.0,56,0.00,,,0.00,meteohub,2013-03-31 07:02:00,
2013-03-31 01:07:00,38.8,24.4,24.19,WNW,293,15.0,18.0,56,0.00,,,0.00,meteohub,2013-03-31 07:07:00,
2013-03-31 01:12:00,39.0,24.6,24.19,NW,315,16.0,16.0,56,0.00,,,0.00,meteohub,2013-03-31 07:12:00,
2013-03-31 01:17:00,39.2,24.8,24.19,NW,315,15.0,17.0,56,0.00,,,0.00,meteohub,2013-03-31 07:17:00,
2013-03-31 01:22:00,39.0,24.6,24.19,NW,315,19.0,19.0,56,0.00,,,0.00,meteohub,2013-03-31 07:22:00,
2013-03-31 01:27:00,39.2,24.4,24.19,NW,315,15.0,19.0,55,0.00,,,0.00,meteohub,2013-03-31 07:27:00,
2013-03-31 01:37:00,39.6,24.8,24.18,NW,315,22.0,22.0,55,0.00,,,0.00,meteohub,2013-03-31 07:37:00,
2013-03-31 01:42:00,40.1,24.3,24.18,NW,315,20.0,22.0,53,0.00,,,0.00,meteohub,2013-03-31 07:42:00,
2013-03-31 01:47:00,39.6,24.8,24.18,NW,315,20.0,23.0,55,0.00,,,0.00,meteohub,2013-03-31 07:47:00,
2013-03-31 01:52:00,39.9,24.6,24.18,NW,315,21.0,23.0,54,0.00,,,0.00,meteohub,2013-03-31 07:52:00,
2013-03-31 01:57:00,39.9,24.6,24.18,NW,315,20.0,23.0,54,0.00,,,0.00,meteohub,2013-03-31 07:57:00,
2013-03-31 02:02:00,39.9,24.6,24.18,NW,315,22.0,22.0,54,0.00,,,0.00,meteohub,2013-03-31 08:02:00,
2013-03-31 02:07:00,39.9,24.6,24.18,NW,315,22.0,22.0,54,0.00,,,0.00,meteohub,2013-03-31 08:07:00,
2013-03-31 02:17:00,40.1,24.3,24.17,NW,315,19.0,23.0,53,0.00,,,0.00,meteohub,2013-03-31 08:17:00,
2013-03-31 02:27:00,40.5,24.3,24.17,West,270,17.0,22.0,52,0.00,,,0.00,meteohub,2013-03-31 08:27:00,
2013-03-31 02:37:00,40.1,24.3,24.17,NW,315,21.0,24.0,53,0.00,,,0.00,meteohub,2013-03-31 08:37:00,
2013-03-31 02:42:00,40.1,24.3,24.17,West,270,20.0,23.0,53,0.00,,,0.00,meteohub,2013-03-31 08:42:00,
2013-03-31 02:47:00,38.7,24.3,24.18,NW,315,13.0,21.0,56,0.00,,,0.00,meteohub,2013-03-31 08:47:00,
2013-03-31 02:52:00,38.3,24.4,24.17,NW,315,10.0,21.0,57,0.00,,,0.00,meteohub,2013-03-31 08:52:00,
2013-03-31 02:57:00,37.9,24.4,24.17,NW,315,11.0,20.0,58,0.00,,,0.00,meteohub,2013-03-31 08:57:00,
2013-03-31 03:07:00,37.6,24.6,24.17,NW,315,10.0,14.0,59,0.00,,,0.00,meteohub,2013-03-31 09:07:00,
2013-03-31 03:17:00,38.1,24.6,24.17,NW,315,12.0,16.0,58,0.00,,,0.00,meteohub,2013-03-31 09:17:00,
2013-03-31 03:27:00,38.7,24.3,24.17,NW,315,18.0,18.0,56,0.00,,,0.00,meteohub,2013-03-31 09:27:00,
2013-03-31 03:32:00,38.5,24.1,24.17,NW,315,14.0,22.0,56,0.00,,,0.00,meteohub,2013-03-31 09:32:00,
2013-03-31 03:37:00,39.4,24.1,24.17,NW,315,17.0,22.0,54,0.00,,,0.00,meteohub,2013-03-31 09:37:00,
2013-03-31 03:42:00,38.7,24.3,24.17,NW,315,15.0,22.0,56,0.00,,,0.00,meteohub,2013-03-31 09:42:00,
2013-03-31 03:47:00,38.7,24.3,24.17,West,270,14.0,21.0,56,0.00,,,0.00,meteohub,2013-03-31 09:47:00,
2013-03-31 03:57:00,39.0,24.3,24.17,West,270,15.0,21.0,55,0.00,,,0.00,meteohub,2013-03-31 09:57:00,
2013-03-31 04:02:00,39.0,24.3,24.17,NW,315,17.0,21.0,55,0.00,,,0.00,meteohub,2013-03-31 10:02:00,
2013-03-31 04:07:00,39.0,24.3,24.17,NW,315,17.0,21.0,55,0.00,,,0.00,meteohub,2013-03-31 10:07:00,
2013-03-31 04:12:00,38.3,23.9,24.17,NW,315,14.0,18.0,56,0.00,,,0.00,meteohub,2013-03-31 10:12:00,
2013-03-31 04:17:00,37.9,24.1,24.17,NW,315,16.0,18.0,57,0.00,,,0.00,meteohub,2013-03-31 10:17:00,
2013-03-31 04:22:00,39.0,23.7,24.17,West,270,18.0,20.0,54,0.00,,,0.00,meteohub,2013-03-31 10:22:00,
2013-03-31 04:27:00,38.8,24.1,24.17,NW,315,19.0,21.0,55,0.00,,,0.00,meteohub,2013-03-31 10:27:00,
2013-03-31 04:37:00,39.2,23.9,24.17,West,270,19.0,26.0,54,0.00,,,0.00,meteohub,2013-03-31 10:37:00,
2013-03-31 04:42:00,38.5,24.1,24.17,WNW,293,16.0,26.0,56,0.00,,,0.00,meteohub,2013-03-31 10:42:00,
2013-03-31 04:52:00,38.8,24.1,24.17,NW,315,17.0,21.0,55,0.00,,,0.00,meteohub,2013-03-31 10:52:00,
2013-03-31 04:57:00,38.7,23.9,24.17,NW,315,15.0,21.0,55,0.00,,,0.00,meteohub,2013-03-31 10:57:00,
2013-03-31 05:02:00,38.5,23.7,24.17,WNW,293,17.0,21.0,55,0.00,,,0.00,meteohub,2013-03-31 11:02:00,
2013-03-31 05:07:00,38.5,23.7,24.17,WNW,293,17.0,21.0,55,0.00,,,0.00,meteohub,2013-03-31 11:07:00,
2013-03-31 05:12:00,38.5,24.1,24.17,WNW,293,17.0,21.0,56,0.00,,,0.00,meteohub,2013-03-31 11:12:00,
2013-03-31 05:22:00,38.5,23.7,24.18,NW,315,16.0,19.0,55,0.00,,,0.00,meteohub,2013-03-31 11:22:00,
2013-03-31 05:32:00,38.3,23.5,24.18,NW,315,15.0,17.0,55,0.00,,,0.00,meteohub,2013-03-31 11:32:00,
2013-03-31 05:42:00,37.9,23.7,24.18,West,270,14.0,17.0,56,0.00,,,0.00,meteohub,2013-03-31 11:42:00,
2013-03-31 05:47:00,38.3,23.5,24.18,NW,315,14.0,17.0,55,0.00,,,0.00,meteohub,2013-03-31 11:47:00,
2013-03-31 05:52:00,38.3,23.5,24.18,NW,315,16.0,17.0,55,0.00,,,0.00,meteohub,2013-03-31 11:52:00,
2013-03-31 05:57:00,37.8,23.5,24.18,NW,315,13.0,17.0,56,0.00,,,0.00,meteohub,2013-03-31 11:57:00,
2013-03-31 06:07:00,38.1,23.4,24.18,NW,315,15.0,16.0,55,0.00,,,0.00,meteohub,2013-03-31 12:07:00,
2013-03-31 06:17:00,37.4,23.2,24.19,NW,315,11.0,15.0,56,0.00,,,0.00,meteohub,2013-03-31 12:17:00,
2013-03-31 06:22:00,37.4,23.5,24.19,NW,315,12.0,15.0,57,0.00,,,0.00,meteohub,2013-03-31 12:22:00,
2013-03-31 06:27:00,37.4,23.2,24.19,NW,315,15.0,15.0,56,0.00,,,0.00,meteohub,2013-03-31 12:27:00,
2013-03-31 06:32:00,37.4,23.2,24.19,NW,315,13.0,15.0,56,0.00,,,0.00,meteohub,2013-03-31 12:32:00,
2013-03-31 06:37:00,37.6,22.8,24.19,NW,315,14.0,15.0,55,0.00,,,0.00,meteohub,2013-03-31 12:37:00,
2013-03-31 06:42:00,37.6,23.4,24.19,NW,315,14.0,17.0,56,0.00,,,0.00,meteohub,2013-03-31 12:42:00,
2013-03-31 06:47:00,37.2,23.0,24.19,NW,315,13.0,17.0,56,0.00,,,0.00,meteohub,2013-03-31 12:47:00,
2013-03-31 06:57:00,37.4,23.2,24.19,NW,315,14.0,15.0,56,0.00,,,0.00,meteohub,2013-03-31 12:57:00,
2013-03-31 07:07:00,37.2,23.0,24.19,NW,315,14.0,15.0,56,0.00,,,0.00,meteohub,2013-03-31 13:07:00,
2013-03-31 07:17:00,37.4,23.2,24.20,NW,315,14.0,15.0,56,0.00,,,0.00,meteohub,2013-03-31 13:17:00,
2013-03-31 07:22:00,37.4,23.2,24.20,NW,315,13.0,15.0,56,0.00,,,0.00,meteohub,2013-03-31 13:22:00,
2013-03-31 07:27:00,37.8,23.5,24.20,NW,315,13.0,15.0,56,0.00,,,0.00,meteohub,2013-03-31 13:27:00,
2013-03-31 07:32:00,38.1,23.4,24.20,NW,315,14.0,15.0,55,0.00,,,0.00,meteohub,2013-03-31 13:32:00,
2013-03-31 07:37:00,37.9,23.7,24.20,NW,315,15.0,15.0,56,0.00,,,0.00,meteohub,2013-03-31 13:37:00,
2013-03-31 07:47:00,38.5,23.4,24.20,NW,315,15.0,16.0,54,0.00,,,0.00,meteohub,2013-03-31 13:47:00,
2013-03-31 07:52:00,38.5,23.7,24.21,NW,315,15.0,17.0,55,0.00,,,0.00,meteohub,2013-03-31 13:52:00,
2013-03-31 08:02:00,38.3,23.5,24.21,NW,315,15.0,17.0,55,0.00,,,0.00,meteohub,2013-03-31 14:02:00,
2013-03-31 08:07:00,38.3,23.5,24.21,NW,315,15.0,16.0,55,0.00,,,0.00,meteohub,2013-03-31 14:07:00,
2013-03-31 08:17:00,39.6,23.4,24.21,NW,315,16.0,16.0,52,0.00,,,0.00,meteohub,2013-03-31 14:17:00,
2013-03-31 08:22:00,39.6,23.9,24.21,NW,315,16.0,16.0,53,0.00,,,0.00,meteohub,2013-03-31 14:22:00,
2013-03-31 08:27:00,39.7,24.1,24.22,NW,315,15.0,16.0,53,0.00,,,0.00,meteohub,2013-03-31 14:27:00,
2013-03-31 08:37:00,40.3,23.5,24.21,NW,315,19.0,24.0,51,0.00,,,0.00,meteohub,2013-03-31 14:37:00,
2013-03-31 08:42:00,40.5,23.7,24.21,NW,315,22.0,24.0,51,0.00,,,0.00,meteohub,2013-03-31 14:42:00,
2013-03-31 08:52:00,41.9,24.6,24.22,North,0,26.0,26.0,50,0.00,,,0.00,meteohub,2013-03-31 14:52:00,
2013-03-31 08:57:00,42.3,24.4,24.21,North,0,27.0,27.0,49,0.00,,,0.00,meteohub,2013-03-31 14:57:00,
2013-03-31 09:02:00,42.6,24.8,24.21,North,0,25.0,30.0,49,0.00,,,0.00,meteohub,2013-03-31 15:02:00,
2013-03-31 09:07:00,42.6,24.8,24.21,North,0,25.0,30.0,49,0.00,,,0.00,meteohub,2013-03-31 15:07:00,
2013-03-31 09:12:00,41.7,23.0,24.21,WNW,293,35.0,35.0,47,0.00,,,0.00,meteohub,2013-03-31 15:12:00,
2013-03-31 09:17:00,41.0,23.4,24.21,North,0,30.0,38.0,49,0.00,,,0.00,meteohub,2013-03-31 15:17:00,
2013-03-31 09:22:00,41.7,24.4,24.21,North,0,31.0,38.0,50,0.00,,,0.00,meteohub,2013-03-31 15:22:00,
2013-03-31 09:32:00,41.2,23.0,24.21,North,0,36.0,40.0,48,0.00,,,0.00,meteohub,2013-03-31 15:32:00,
2013-03-31 09:37:00,41.5,23.7,24.21,North,0,36.0,40.0,49,0.00,,,0.00,meteohub,2013-03-31 15:37:00,
2013-03-31 09:42:00,41.5,24.8,24.22,North,0,34.0,40.0,51,0.00,,,0.00,meteohub,2013-03-31 15:42:00,
2013-03-31 09:52:00,40.6,25.3,24.22,North,0,30.0,37.0,54,0.00,,,0.00,meteohub,2013-03-31 15:52:00,
2013-03-31 09:57:00,40.3,25.0,24.22,North,0,30.0,37.0,54,0.00,,,0.00,meteohub,2013-03-31 15:57:00,
2013-03-31 10:02:00,40.5,24.6,24.22,North,0,29.0,34.0,53,0.00,,,0.00,meteohub,2013-03-31 16:02:00,
2013-03-31 10:07:00,40.5,24.6,24.22,North,0,29.0,34.0,53,0.00,,,0.00,meteohub,2013-03-31 16:07:00,
2013-03-31 10:12:00,39.9,25.5,24.23,WNW,293,30.0,33.0,56,0.00,,,0.00,meteohub,2013-03-31 16:12:00,
2013-03-31 10:22:00,40.3,25.9,24.23,North,0,26.0,30.0,56,0.00,,,0.00,meteohub,2013-03-31 16:22:00,
2013-03-31 10:32:00,39.9,24.6,24.24,North,0,27.0,30.0,54,0.00,,,0.00,meteohub,2013-03-31 16:32:00,
2013-03-31 10:42:00,40.1,26.1,24.25,NNW,338,21.0,30.0,57,0.00,,,0.00,meteohub,2013-03-31 16:42:00,
2013-03-31 10:47:00,39.9,26.4,24.25,North,0,22.0,30.0,58,0.00,,,0.00,meteohub,2013-03-31 16:47:00,
2013-03-31 10:52:00,40.6,26.6,24.25,North,0,23.0,30.0,57,0.00,,,0.00,meteohub,2013-03-31 16:52:00,
2013-03-31 10:57:00,40.5,26.8,24.25,North,0,27.0,27.0,58,0.00,,,0.00,meteohub,2013-03-31 16:57:00,
2013-03-31 11:07:00,41.5,26.6,24.25,North,0,17.0,27.0,55,0.00,,,0.00,meteohub,2013-03-31 17:07:00,
2013-03-31 11:12:00,41.5,26.1,24.25,North,0,23.0,29.0,54,0.00,,,0.00,meteohub,2013-03-31 17:12:00,
2013-03-31 11:22:00,40.1,24.8,24.25,North,0,23.0,29.0,54,0.00,,,0.00,meteohub,2013-03-31 17:22:00,
2013-03-31 11:27:00,40.5,25.2,24.25,North,0,27.0,29.0,54,0.00,,,0.00,meteohub,2013-03-31 17:27:00,
2013-03-31 11:32:00,39.6,24.8,24.26,North,0,23.0,29.0,55,0.00,,,0.00,meteohub,2013-03-31 17:32:00,
2013-03-31 11:37:00,39.9,25.5,24.26,North,0,21.0,27.0,56,0.00,,,0.00,meteohub,2013-03-31 17:37:00,
2013-03-31 11:42:00,40.1,24.8,24.26,North,0,24.0,27.0,54,0.00,,,0.00,meteohub,2013-03-31 17:42:00,
2013-03-31 11:52:00,40.1,24.8,24.26,North,0,24.0,26.0,54,0.00,,,0.00,meteohub,2013-03-31 17:52:00,
2013-03-31 11:57:00,40.3,25.0,24.27,North,0,21.0,27.0,54,0.00,,,0.00,meteohub,2013-03-31 17:57:00,
2013-03-31 12:02:00,40.3,25.3,24.27,North,0,26.0,27.0,55,0.00,,,0.00,meteohub,2013-03-31 18:02:00,
2013-03-31 12:07:00,40.3,25.3,24.27,North,0,26.0,27.0,55,0.00,,,0.00,meteohub,2013-03-31 18:07:00,
2013-03-31 12:12:00,40.3,25.3,24.27,North,0,21.0,28.0,55,0.00,,,0.00,meteohub,2013-03-31 18:12:00,
2013-03-31 12:17:00,40.3,24.1,24.27,North,0,23.0,29.0,52,0.00,,,0.00,meteohub,2013-03-31 18:17:00,
2013-03-31 12:22:00,40.8,24.6,24.27,North,0,21.0,29.0,52,0.00,,,0.00,meteohub,2013-03-31 18:22:00,
2013-03-31 12:27:00,41.7,25.0,24.27,North,0,18.0,27.0,51,0.00,,,0.00,meteohub,2013-03-31 18:27:00,
2013-03-31 12:32:00,42.3,24.4,24.28,North,0,17.0,25.0,49,0.00,,,0.00,meteohub,2013-03-31 18:32:00,
2013-03-31 12:37:00,41.7,24.4,24.27,North,0,27.0,27.0,50,0.00,,,0.00,meteohub,2013-03-31 18:37:00,
2013-03-31 12:42:00,42.3,24.4,24.28,North,0,23.0,27.0,49,0.00,,,0.00,meteohub,2013-03-31 18:42:00,
2013-03-31 12:47:00,41.9,23.7,24.27,North,0,22.0,27.0,48,0.00,,,0.00,meteohub,2013-03-31 18:47:00,
2013-03-31 12:52:00,42.3,23.5,24.27,North,0,27.0,27.0,47,0.00,,,0.00,meteohub,2013-03-31 18:52:00,
2013-03-31 13:02:00,42.3,23.5,24.27,North,0,20.0,27.0,47,0.00,,,0.00,meteohub,2013-03-31 19:02:00,
2013-03-31 13:07:00,42.3,23.5,24.28,North,0,20.0,27.0,47,0.00,,,0.00,meteohub,2013-03-31 19:07:00,
2013-03-31 13:12:00,42.6,23.4,24.27,North,0,23.0,26.0,46,0.00,,,0.00,meteohub,2013-03-31 19:12:00,
2013-03-31 13:17:00,42.6,22.8,24.27,North,0,22.0,27.0,45,0.00,,,0.00,meteohub,2013-03-31 19:17:00,
2013-03-31 13:22:00,42.6,24.3,24.28,North,0,24.0,27.0,48,0.00,,,0.00,meteohub,2013-03-31 19:22:00,
2013-03-31 13:27:00,42.3,23.5,24.28,North,0,23.0,26.0,47,0.00,,,0.00,meteohub,2013-03-31 19:27:00,
2013-03-31 13:32:00,42.6,23.4,24.27,North,0,18.0,25.0,46,0.00,,,0.00,meteohub,2013-03-31 19:32:00,
2013-03-31 13:42:00,41.9,23.2,24.28,North,0,19.0,25.0,47,0.00,,,0.00,meteohub,2013-03-31 19:42:00,
2013-03-31 13:52:00,42.1,24.8,24.28,North,0,22.0,22.0,50,0.00,,,0.00,meteohub,2013-03-31 19:52:00,
2013-03-31 13:57:00,42.6,23.7,24.28,North,0,23.0,23.0,47,0.00,,,0.00,meteohub,2013-03-31 19:57:00,
2013-03-31 14:07:00,42.4,23.2,24.28,North,0,15.0,23.0,46,0.00,,,0.00,meteohub,2013-03-31 20:07:00,
2013-03-31 14:12:00,41.5,23.7,24.28,North,0,21.0,23.0,49,0.00,,,0.00,meteohub,2013-03-31 20:12:00,
2013-03-31 14:22:00,42.6,22.8,24.27,North,0,17.0,24.0,45,0.00,,,0.00,meteohub,2013-03-31 20:22:00,
2013-03-31 14:32:00,42.3,23.5,24.27,North,0,19.0,24.0,47,0.00,,,0.00,meteohub,2013-03-31 20:32:00,
2013-03-31 14:37:00,42.4,24.6,24.27,North,0,21.0,22.0,49,0.00,,,0.00,meteohub,2013-03-31 20:37:00,
2013-03-31 14:42:00,43.9,24.4,24.27,North,0,20.0,22.0,46,0.00,,,0.00,meteohub,2013-03-31 20:42:00,
2013-03-31 14:52:00,43.7,23.2,24.26,North,0,21.0,21.0,44,0.00,,,0.00,meteohub,2013-03-31 20:52:00,
2013-03-31 14:57:00,42.3,23.5,24.27,North,0,23.0,23.0,47,0.00,,,0.00,meteohub,2013-03-31 20:57:00,
2013-03-31 15:07:00,42.4,23.2,24.26,North,0,18.0,26.0,46,0.00,,,0.00,meteohub,2013-03-31 21:07:00,
2013-03-31 15:17:00,42.8,24.4,24.27,NE,45,16.0,24.0,48,0.00,,,0.00,meteohub,2013-03-31 21:17:00,
2013-03-31 15:22:00,45.1,23.9,24.26,North,0,18.0,24.0,43,0.00,,,0.00,meteohub,2013-03-31 21:22:00,
2013-03-31 15:27:00,45.7,23.4,24.26,North,0,17.0,20.0,41,0.00,,,0.00,meteohub,2013-03-31 21:27:00,
2013-03-31 15:37:00,43.5,22.5,24.26,North,0,21.0,26.0,43,0.00,,,0.00,meteohub,2013-03-31 21:37:00,
2013-03-31 15:42:00,42.4,22.6,24.26,North,0,20.0,26.0,45,0.00,,,0.00,meteohub,2013-03-31 21:42:00,
2013-03-31 15:47:00,43.0,24.1,24.26,North,0,22.0,26.0,47,0.00,,,0.00,meteohub,2013-03-31 21:47:00,
2013-03-31 15:57:00,43.0,23.2,24.26,NNW,338,17.0,23.0,45,0.00,,,0.00,meteohub,2013-03-31 21:57:00,
2013-03-31 16:02:00,43.2,23.2,24.27,North,0,15.0,22.0,45,0.00,,,0.00,meteohub,2013-03-31 22:02:00,
2013-03-31 16:12:00,43.2,23.7,24.26,North,0,22.0,22.0,46,0.00,,,0.00,meteohub,2013-03-31 22:12:00,
2013-03-31 16:17:00,41.9,23.2,24.26,North,0,14.0,22.0,47,0.00,,,0.00,meteohub,2013-03-31 22:17:00,
2013-03-31 16:27:00,44.6,24.6,24.26,NE,45,17.0,22.0,45,0.00,,,0.00,meteohub,2013-03-31 22:27:00,
2013-03-31 16:32:00,43.2,22.6,24.26,NE,45,17.0,17.0,44,0.00,,,0.00,meteohub,2013-03-31 22:32:00,
2013-03-31 16:37:00,41.9,23.2,24.26,NE,45,11.0,20.0,47,0.00,,,0.00,meteohub,2013-03-31 22:37:00,
2013-03-31 16:42:00,41.4,23.7,24.26,NE,45,12.0,20.0,49,0.00,,,0.00,meteohub,2013-03-31 22:42:00,
2013-03-31 16:47:00,42.1,22.8,24.26,North,0,8.0,17.0,46,0.00,,,0.00,meteohub,2013-03-31 22:47:00,
2013-03-31 16:52:00,43.0,24.6,24.25,North,0,8.0,17.0,48,0.00,,,0.00,meteohub,2013-03-31 22:52:00,
2013-03-31 17:02:00,44.6,24.1,24.25,NE,45,12.0,12.0,44,0.00,,,0.00,meteohub,2013-03-31 23:02:00,
2013-03-31 17:12:00,43.9,22.8,24.25,North,0,17.0,20.0,43,0.00,,,0.00,meteohub,2013-03-31 23:12:00,
2013-03-31 17:17:00,43.0,22.6,24.25,North,0,14.0,20.0,44,0.00,,,0.00,meteohub,2013-03-31 23:17:00,
2013-03-31 17:27:00,43.0,22.1,24.25,North,0,19.0,19.0,43,0.00,,,0.00,meteohub,2013-03-31 23:27:00,
2013-03-31 17:37:00,43.3,23.9,24.25,North,0,17.0,20.0,46,0.00,,,0.00,meteohub,2013-03-31 23:37:00,
2013-03-31 17:42:00,43.0,23.2,24.24,NNE,23,11.0,20.0,45,0.00,,,0.00,meteohub,2013-03-31 23:42:00,
2013-03-31 17:52:00,43.5,24.1,24.24,NNW,338,12.0,19.0,46,0.00,,,0.00,meteohub,2013-03-31 23:52:00,
2013-03-31 18:02:00,43.0,23.2,24.24,North,0,17.0,17.0,45,0.00,,,0.00,meteohub,2013-04-01 00:02:00,
2013-03-31 18:07:00,43.0,23.2,24.25,North,0,17.0,17.0,45,0.00,,,0.00,meteohub,2013-04-01 00:07:00,
2013-03-31 18:12:00,42.4,22.6,24.24,North,0,13.0,17.0,45,0.00,,,0.00,meteohub,2013-04-01 00:12:00,
2013-03-31 18:17:00,42.3,22.5,24.24,North,0,15.0,17.0,45,0.00,,,0.00,meteohub,2013-04-01 00:17:00,
2013-03-31 18:22:00,42.6,23.4,24.24,NE,45,12.0,17.0,46,0.00,,,0.00,meteohub,2013-04-01 00:22:00,
2013-03-31 18:32:00,41.9,23.2,24.24,North,0,15.0,16.0,47,0.00,,,0.00,meteohub,2013-04-01 00:32:00,
2013-03-31 18:37:00,42.3,23.0,24.24,North,0,15.0,16.0,46,0.00,,,0.00,meteohub,2013-04-01 00:37:00,
2013-03-31 18:47:00,41.4,22.6,24.23,NNW,338,14.0,15.0,47,0.00,,,0.00,meteohub,2013-04-01 00:47:00,
2013-03-31 18:57:00,41.4,23.7,24.24,NE,45,15.0,17.0,49,0.00,,,0.00,meteohub,2013-04-01 00:57:00,
2013-03-31 19:07:00,41.0,23.4,24.23,North,0,15.0,17.0,49,0.00,,,0.00,meteohub,2013-04-01 01:07:00,
2013-03-31 19:12:00,39.9,23.2,24.24,NE,45,12.0,15.0,51,0.00,,,0.00,meteohub,2013-04-01 01:12:00,
2013-03-31 19:17:00,39.6,23.4,24.23,NE,45,10.0,15.0,52,0.00,,,0.00,meteohub,2013-04-01 01:17:00,
2013-03-31 19:22:00,39.2,23.5,24.23,North,0,11.0,15.0,53,0.00,,,0.00,meteohub,2013-04-01 01:22:00,
2013-03-31 19:27:00,38.8,23.2,24.23,North,0,12.0,15.0,53,0.00,,,0.00,meteohub,2013-04-01 01:27:00,
2013-03-31 19:32:00,38.5,23.4,24.23,North,0,10.0,15.0,54,0.00,,,0.00,meteohub,2013-04-01 01:32:00,
2013-03-31 19:37:00,37.9,23.2,24.23,North,0,11.0,15.0,55,0.00,,,0.00,meteohub,2013-04-01 01:37:00,
2013-03-31 19:47:00,37.2,23.0,24.23,North,0,9.0,11.0,56,0.00,,,0.00,meteohub,2013-04-01 01:47:00,
2013-03-31 19:52:00,36.9,23.0,24.23,North,0,10.0,11.0,57,0.00,,,0.00,meteohub,2013-04-01 01:52:00,
2013-03-31 19:57:00,36.7,22.8,24.23,North,0,11.0,12.0,57,0.00,,,0.00,meteohub,2013-04-01 01:57:00,
2013-03-31 20:07:00,36.7,22.8,24.23,NNE,23,10.0,12.0,57,0.00,,,0.00,meteohub,2013-04-01 02:07:00,
2013-03-31 20:12:00,36.0,22.6,24.22,North,0,11.0,11.0,58,0.00,,,0.00,meteohub,2013-04-01 02:12:00,
2013-03-31 20:17:00,35.8,22.8,24.23,North,0,10.0,14.0,59,0.00,,,0.00,meteohub,2013-04-01 02:17:00,
2013-03-31 20:27:00,35.6,22.6,24.23,North,0,12.0,14.0,59,0.00,,,0.00,meteohub,2013-04-01 02:27:00,
2013-03-31 20:32:00,35.8,22.5,24.22,North,0,12.0,14.0,58,0.00,,,0.00,meteohub,2013-04-01 02:32:00,
2013-03-31 20:42:00,35.8,22.5,24.22,NE,45,11.0,15.0,58,0.00,,,0.00,meteohub,2013-04-01 02:42:00,
2013-03-31 20:52:00,35.6,22.3,24.23,NE,45,11.0,15.0,58,0.00,,,0.00,meteohub,2013-04-01 02:52:00,
2013-03-31 20:57:00,35.4,22.1,24.23,NE,45,12.0,14.0,58,0.00,,,0.00,meteohub,2013-04-01 02:57:00,
2013-03-31 21:07:00,35.6,22.3,24.23,North,0,9.0,14.0,58,0.00,,,0.00,meteohub,2013-04-01 03:07:00,
2013-03-31 21:12:00,35.4,22.1,24.23,NE,45,9.0,14.0,58,0.00,,,0.00,meteohub,2013-04-01 03:12:00,
2013-03-31 21:17:00,35.2,22.3,24.23,NE,45,11.0,14.0,59,0.00,,,0.00,meteohub,2013-04-01 03:17:00,
2013-03-31 21:27:00,35.4,22.1,24.23,NE,45,8.0,12.0,58,0.00,,,0.00,meteohub,2013-04-01 03:27:00,
2013-03-31 21:37:00,35.2,21.9,24.23,NE,45,6.0,11.0,58,0.00,,,0.00,meteohub,2013-04-01 03:37:00,
2013-03-31 21:42:00,35.6,21.9,24.23,NE,45,4.0,11.0,57,0.00,,,0.00,meteohub,2013-04-01 03:42:00,
2013-03-31 21:47:00,35.6,21.9,24.23,NE,45,4.0,8.0,57,0.00,,,0.00,meteohub,2013-04-01 03:47:00,
2013-03-31 21:52:00,36.0,21.7,24.24,NE,45,4.0,8.0,56,0.00,,,0.00,meteohub,2013-04-01 03:52:00,
2013-03-31 21:57:00,35.8,21.6,24.23,NE,45,5.0,5.0,56,0.00,,,0.00,meteohub,2013-04-01 03:57:00,
2013-03-31 22:02:00,35.6,21.9,24.23,East,90,4.0,6.0,57,0.00,,,0.00,meteohub,2013-04-01 04:02:00,
2013-03-31 22:07:00,35.6,21.9,24.23,East,90,4.0,6.0,57,0.00,,,0.00,meteohub,2013-04-01 04:07:00,
2013-03-31 22:17:00,36.1,21.9,24.23,NE,45,5.0,5.0,56,0.00,,,0.00,meteohub,2013-04-01 04:17:00,
2013-03-31 22:22:00,36.1,21.6,24.23,NE,45,4.0,6.0,55,0.00,,,0.00,meteohub,2013-04-01 04:22:00,
2013-03-31 22:32:00,36.1,21.9,24.23,East,90,4.0,6.0,56,0.00,,,0.00,meteohub,2013-04-01 04:32:00,
2013-03-31 22:37:00,36.3,21.7,24.23,East,90,5.0,5.0,55,0.00,,,0.00,meteohub,2013-04-01 04:37:00,
2013-03-31 22:42:00,36.5,21.9,24.23,East,90,8.0,8.0,55,0.00,,,0.00,meteohub,2013-04-01 04:42:00,
2013-03-31 22:52:00,36.3,21.7,24.22,East,90,4.0,8.0,55,0.00,,,0.00,meteohub,2013-04-01 04:52:00,
2013-03-31 22:57:00,36.5,21.9,24.22,East,90,4.0,8.0,55,0.00,,,0.00,meteohub,2013-04-01 04:57:00,
2013-03-31 23:02:00,36.5,21.9,24.23,East,90,4.0,5.0,55,0.00,,,0.00,meteohub,2013-04-01 05:02:00,
2013-03-31 23:07:00,36.5,21.9,24.23,East,90,4.0,5.0,55,0.00,,,0.00,meteohub,2013-04-01 05:07:00,
2013-03-31 23:17:00,36.5,21.4,24.22,East,90,4.0,4.0,54,0.00,,,0.00,meteohub,2013-04-01 05:17:00,
2013-03-31 23:22:00,36.3,21.2,24.22,ENE,68,3.0,4.0,54,0.00,,,0.00,meteohub,2013-04-01 05:22:00,
2013-03-31 23:27:00,36.1,21.6,24.22,NE,45,4.0,4.0,55,0.00,,,0.00,meteohub,2013-04-01 05:27:00,
2013-03-31 23:32:00,36.5,21.4,24.22,North,0,4.0,4.0,54,0.00,,,0.00,meteohub,2013-04-01 05:32:00,
2013-03-31 23:37:00,36.7,21.6,24.22,North,0,4.0,4.0,54,0.00,,,0.00,meteohub,2013-04-01 05:37:00,
2013-03-31 23:42:00,36.9,21.4,24.22,North,0,4.0,5.0,53,0.00,,,0.00,meteohub,2013-04-01 05:42:00,
2013-03-31 23:52:00,36.7,21.6,24.22,North,0,4.0,5.0,54,0.00,,,0.00,meteohub,2013-04-01 05:52:00,
2013-03-31 23:57:00,36.5,21.4,24.22,North,0,4.0,4.0,54,0.00,,,0.00,meteohub,2013-04-01 05:57:00,